createdAt,value
2023-03-01T00:01:26.234Z,98991.16
2023-03-01T00:03:55.517Z,98998.47
2023-03-01T00:06:24.181Z,99004.34
2023-03-01T00:08:52.203Z,99012.00
2023-03-01T00:11:28.102Z,99009.28
2023-03-01T00:13:58.482Z,99011.53
2023-03-01T00:16:28.027Z,99007.53
2023-03-01T00:18:57.227Z,99003.13
2023-03-01T00:21:25.837Z,99000.84
2023-03-01T00:23:53.901Z,98990.13
2023-03-01T00:26:23.195Z,98997.00
2023-03-01T00:28:51.179Z,98977.28
2023-03-01T00:31:21.481Z,98980.69
2023-03-01T00:33:49.255Z,98980.19
2023-03-01T00:36:17.620Z,98985.22
2023-03-01T00:38:46.672Z,98984.34
2023-03-01T00:41:16.904Z,98968.47
2023-03-01T00:43:45.145Z,98991.28
2023-03-01T00:46:15.684Z,98999.84
2023-03-01T00:48:43.320Z,98990.41
2023-03-01T00:51:12.226Z,98995.44
2023-03-01T00:53:40.267Z,98991.94
2023-03-01T00:56:12.371Z,98981.53
2023-03-01T00:58:40.443Z,98972.91
2023-03-01T01:01:19.868Z,98978.13
2023-03-01T01:03:52.704Z,98983.94
2023-03-01T01:06:32.451Z,98986.03
2023-03-01T01:09:01.123Z,98983.94
2023-03-01T01:11:30.736Z,98989.81
2023-03-01T01:13:59.062Z,98977.81
2023-03-01T01:16:29.129Z,98986.31
2023-03-01T01:18:57.983Z,98990.59
2023-03-01T01:21:26.942Z,98993.22
2023-03-01T01:23:54.886Z,98985.34
2023-03-01T01:26:26.949Z,98979.06
2023-03-01T01:28:55.458Z,98981.59
2023-03-01T01:31:26.806Z,98975.56
2023-03-01T01:33:55.295Z,98986.13
2023-03-01T01:36:22.860Z,98980.63
2023-03-01T01:38:50.370Z,98989.38
2023-03-01T01:41:18.860Z,98986.75
2023-03-01T01:44:10.844Z,98992.44
2023-03-01T01:46:41.714Z,98985.50
2023-03-01T01:49:20.570Z,98982.00
2023-03-01T01:51:50.938Z,98994.69
2023-03-01T01:54:30.422Z,98985.41
2023-03-01T01:57:03.383Z,98998.94
2023-03-01T01:59:33.661Z,98983.25
2023-03-01T02:02:04.039Z,98983.25
2023-03-01T02:04:33.429Z,98984.25
2023-03-01T02:07:17.122Z,98992.75
2023-03-01T02:09:49.055Z,98986.72
2023-03-01T02:12:18.870Z,98985.06
2023-03-01T02:14:46.470Z,98983.31
2023-03-01T02:17:17.220Z,98988.13
2023-03-01T02:20:22.506Z,98986.97
2023-03-01T02:22:51.116Z,98988.00
2023-03-01T02:25:19.329Z,98992.16
2023-03-01T02:27:59.619Z,98995.41
2023-03-01T02:30:28.735Z,98986.66
2023-03-01T02:33:03.948Z,98998.94
2023-03-01T02:35:36.701Z,98999.69
2023-03-01T02:38:07.386Z,98993.69
2023-03-01T02:40:37.031Z,99000.84
2023-03-01T02:43:09.418Z,98999.34
2023-03-01T02:45:37.025Z,98992.09
2023-03-01T02:48:04.735Z,98999.97
2023-03-01T02:50:32.343Z,99001.59
2023-03-01T02:53:12.232Z,99005.00
2023-03-01T02:55:40.229Z,98994.22
2023-03-01T02:58:09.736Z,99005.25
2023-03-01T03:00:48.240Z,99002.50
2023-03-01T03:03:21.028Z,99003.38
2023-03-01T03:05:50.004Z,99015.81
2023-03-01T03:08:25.269Z,99012.44
2023-03-01T03:10:54.750Z,99010.56
2023-03-01T03:13:29.375Z,99016.19
2023-03-01T03:15:57.881Z,99011.19
2023-03-01T03:18:28.885Z,99012.19
2023-03-01T03:20:56.471Z,99010.34
2023-03-01T03:23:24.232Z,99016.22
2023-03-01T03:25:52.933Z,99012.72
2023-03-01T03:28:20.565Z,99012.84
2023-03-01T03:30:48.970Z,99010.34
2023-03-01T03:33:16.882Z,99012.09
2023-03-01T03:35:47.286Z,99013.22
2023-03-01T03:38:17.206Z,99025.00
2023-03-01T03:40:46.309Z,99023.88
2023-03-01T03:43:19.161Z,99027.00
2023-03-01T03:45:48.368Z,99018.38
2023-03-01T03:48:16.732Z,99014.47
2023-03-01T03:50:50.629Z,99026.53
2023-03-01T03:53:18.838Z,99019.50
2023-03-01T03:55:50.308Z,99028.91
2023-03-01T03:58:20.979Z,99019.63
2023-03-01T04:00:51.295Z,99020.13
2023-03-01T04:03:21.094Z,99015.09
2023-03-01T04:05:50.810Z,99020.75
2023-03-01T04:08:23.259Z,99032.41
2023-03-01T04:10:57.188Z,99026.00
2023-03-01T04:13:26.336Z,99033.91
2023-03-01T04:15:55.410Z,99039.81
2023-03-01T04:18:27.032Z,99026.91
2023-03-01T04:20:56.469Z,99039.19
2023-03-01T04:23:24.490Z,99041.84
2023-03-01T04:26:00.201Z,99038.69
2023-03-01T04:28:37.162Z,99046.22
2023-03-01T04:31:14.384Z,99052.22
2023-03-01T04:33:44.218Z,99049.09
2023-03-01T04:36:13.865Z,99056.75
2023-03-01T04:38:41.837Z,99050.22
2023-03-01T04:41:11.195Z,99053.59
2023-03-01T04:43:39.288Z,99058.91
2023-03-01T04:46:15.389Z,99062.50
2023-03-01T04:48:45.038Z,99051.22
2023-03-01T04:51:14.632Z,99052.59
2023-03-01T04:53:45.198Z,99060.41
2023-03-01T04:56:15.004Z,99059.53
2023-03-01T04:58:43.188Z,99062.16
2023-03-01T05:01:20.446Z,99056.59
2023-03-01T05:03:50.913Z,99059.84
2023-03-01T05:06:20.835Z,99058.47
2023-03-01T05:08:48.972Z,99059.34
2023-03-01T05:11:16.547Z,99056.69
2023-03-01T05:13:44.432Z,99066.84
2023-03-01T05:16:12.727Z,99066.69
2023-03-01T05:18:41.903Z,99072.97
2023-03-01T05:21:17.468Z,99074.66
2023-03-01T05:23:48.640Z,99071.31
2023-03-01T05:26:33.908Z,99084.50
2023-03-01T05:29:02.159Z,99087.94
2023-03-01T05:31:31.971Z,99087.03
2023-03-01T05:34:00.082Z,99085.59
2023-03-01T05:36:27.638Z,99084.25
2023-03-01T05:38:55.218Z,99088.97
2023-03-01T05:41:22.661Z,99100.72
2023-03-01T05:43:50.723Z,99090.44
2023-03-01T05:46:18.327Z,99099.31
2023-03-01T05:48:49.452Z,99102.72
2023-03-01T05:51:18.704Z,99097.03
2023-03-01T05:53:46.224Z,99109.19
2023-03-01T05:56:13.850Z,99102.22
2023-03-01T05:58:41.685Z,99107.94
2023-03-01T06:01:14.498Z,99100.75
2023-03-01T06:03:42.562Z,99106.47
2023-03-01T06:06:11.941Z,99106.94
2023-03-01T06:08:39.994Z,99105.16
2023-03-01T06:11:08.264Z,99110.03
2023-03-01T06:13:39.262Z,99106.09
2023-03-01T06:16:08.521Z,99120.13
2023-03-01T06:18:37.408Z,99117.81
2023-03-01T06:21:06.528Z,99120.56
2023-03-01T06:23:34.702Z,99115.13
2023-03-01T06:26:06.694Z,99119.72
2023-03-01T06:28:34.382Z,99119.50
2023-03-01T06:31:02.133Z,99111.84
2023-03-01T06:33:32.318Z,99126.06
2023-03-01T06:36:00.429Z,99117.25
2023-03-01T06:38:28.432Z,99118.97
2023-03-01T06:40:57.684Z,99114.47
2023-03-01T06:43:27.823Z,99117.50
2023-03-01T06:45:55.374Z,99113.00
2023-03-01T06:48:23.350Z,99119.09
2023-03-01T06:50:50.890Z,99115.97
2023-03-01T06:53:18.540Z,99115.91
2023-03-01T06:55:46.128Z,99114.47
2023-03-01T06:58:14.747Z,99102.72
2023-03-01T07:00:44.214Z,99104.72
2023-03-01T07:03:12.096Z,99106.88
2023-03-01T07:05:40.043Z,99111.06
2023-03-01T07:08:07.568Z,99105.31
2023-03-01T07:10:35.268Z,99109.88
2023-03-01T07:13:03.509Z,99107.44
2023-03-01T07:15:31.010Z,99128.84
2023-03-01T07:17:59.099Z,99123.81
2023-03-01T07:20:26.842Z,99116.06
2023-03-01T07:22:56.288Z,99127.69
2023-03-01T07:25:28.474Z,99127.59
2023-03-01T07:27:56.050Z,99121.47
2023-03-01T07:30:27.101Z,99126.84
2023-03-01T07:32:56.034Z,99142.06
2023-03-01T07:35:26.176Z,99131.25
2023-03-01T07:37:54.187Z,99133.97
2023-03-01T07:40:21.889Z,99136.25
2023-03-01T07:42:49.645Z,99133.31
2023-03-01T07:45:17.403Z,99134.59
2023-03-01T07:47:44.968Z,99140.44
2023-03-01T07:50:12.492Z,99146.75
2023-03-01T07:52:40.243Z,99143.28
2023-03-01T07:55:08.218Z,99146.59
2023-03-01T07:57:35.722Z,99139.34
2023-03-01T08:00:04.799Z,99139.91
2023-03-01T08:02:41.678Z,99151.75
2023-03-01T08:05:11.788Z,99138.66
2023-03-01T08:07:42.112Z,99139.06
2023-03-01T08:10:11.384Z,99138.75
2023-03-01T08:12:40.296Z,99140.59
2023-03-01T08:15:11.122Z,99134.97
2023-03-01T08:17:39.078Z,99140.88
2023-03-01T08:20:11.124Z,99132.03
2023-03-01T08:22:38.997Z,99138.09
2023-03-01T08:25:06.675Z,99136.91
2023-03-01T08:27:34.648Z,99136.66
2023-03-01T08:30:02.108Z,99144.47
2023-03-01T08:32:30.749Z,99137.63
2023-03-01T08:34:58.666Z,99140.47
2023-03-01T08:37:26.441Z,99146.03
2023-03-01T08:39:55.980Z,99133.94
2023-03-01T08:42:24.249Z,99139.13
2023-03-01T08:44:51.699Z,99136.91
2023-03-01T08:47:19.362Z,99144.03
2023-03-01T08:49:46.949Z,99135.66
2023-03-01T08:52:14.550Z,99142.28
2023-03-01T08:54:42.075Z,99142.72
2023-03-01T08:57:10.745Z,99151.22
2023-03-01T08:59:38.494Z,99144.63
2023-03-01T09:02:13.816Z,99158.81
2023-03-01T09:04:46.423Z,99151.19
2023-03-01T09:07:14.042Z,99145.41
2023-03-01T09:09:44.151Z,99144.72
2023-03-01T09:12:14.539Z,99152.69
2023-03-01T09:14:43.168Z,99149.25
2023-03-01T09:17:12.808Z,99151.78
2023-03-01T09:19:41.157Z,99151.81
2023-03-01T09:22:09.323Z,99155.44
2023-03-01T09:24:36.945Z,99152.78
2023-03-01T09:27:04.352Z,99153.47
2023-03-01T09:29:31.920Z,99146.38
2023-03-01T09:32:00.188Z,99148.06
2023-03-01T09:34:29.725Z,99150.84
2023-03-01T09:36:59.525Z,99148.78
2023-03-01T09:39:27.869Z,99138.50
2023-03-01T09:42:05.355Z,99138.22
2023-03-01T09:44:52.851Z,99135.31
2023-03-01T09:47:25.385Z,99139.03
2023-03-01T09:50:10.896Z,99151.75
2023-03-01T09:52:55.700Z,99143.69
2023-03-01T09:55:40.576Z,99137.50
2023-03-01T09:58:36.309Z,99161.00
2023-03-01T10:01:19.673Z,99157.53
2023-03-01T10:04:06.008Z,99161.44
2023-03-01T10:06:35.541Z,99166.69
2023-03-01T10:09:17.688Z,99169.84
2023-03-01T10:11:52.736Z,99170.00
2023-03-01T10:14:42.248Z,99175.31
2023-03-01T10:17:25.582Z,99173.97
2023-03-01T10:19:53.248Z,99172.19
2023-03-01T10:22:24.378Z,99177.09
2023-03-01T10:24:54.156Z,99194.16
2023-03-01T10:27:26.731Z,99193.97
2023-03-01T10:30:17.638Z,99195.88
2023-03-01T10:32:45.792Z,99202.66
2023-03-01T10:35:17.683Z,99201.53
2023-03-01T10:38:09.929Z,99197.06
2023-03-01T10:40:52.655Z,99193.34
2023-03-01T10:43:20.756Z,99195.56
2023-03-01T10:45:48.771Z,99184.00
2023-03-01T10:48:27.285Z,99192.88
2023-03-01T10:51:01.074Z,99191.25
2023-03-01T10:53:41.889Z,99186.50
2023-03-01T10:56:14.969Z,99204.34
2023-03-01T10:59:21.013Z,99205.25
2023-03-01T11:02:24.109Z,99204.47
2023-03-01T11:05:01.835Z,99208.25
2023-03-01T11:07:32.840Z,99201.19
2023-03-01T11:10:13.275Z,99210.09
2023-03-01T11:12:41.589Z,99201.22
2023-03-01T11:15:22.883Z,99208.06
2023-03-01T11:17:57.058Z,99193.47
2023-03-01T11:20:34.378Z,99204.84
2023-03-01T11:23:14.185Z,99205.44
2023-03-01T11:25:45.346Z,99199.03
2023-03-01T11:28:18.321Z,99188.09
2023-03-01T11:31:07.852Z,99203.09
2023-03-01T11:33:49.460Z,99198.50
2023-03-01T11:36:23.310Z,99203.88
2023-03-01T11:38:51.383Z,99188.16
2023-03-01T11:41:25.651Z,99193.94
2023-03-01T11:44:00.136Z,99188.47
2023-03-01T11:46:33.254Z,99189.94
2023-03-01T11:49:22.812Z,99194.88
2023-03-01T11:51:57.158Z,99199.56
2023-03-01T11:54:40.020Z,99187.50
2023-03-01T11:57:43.362Z,99192.41
2023-03-01T12:00:45.761Z,99202.31
2023-03-01T12:03:32.191Z,99192.81
2023-03-01T12:06:25.051Z,99201.69
2023-03-01T12:09:24.458Z,99217.31
2023-03-01T12:12:04.823Z,99223.19
2023-03-01T12:15:08.310Z,99230.03
2023-03-01T12:18:10.750Z,99225.53
2023-03-01T12:20:49.722Z,99228.97
2023-03-01T12:23:36.094Z,99234.50
2023-03-01T12:26:09.529Z,99230.97
2023-03-01T12:28:43.440Z,99229.81
2023-03-01T12:31:31.383Z,99224.53
2023-03-01T12:34:11.228Z,99226.31
2023-03-01T12:36:48.279Z,99220.38
2023-03-01T12:39:34.820Z,99214.59
2023-03-01T12:42:14.811Z,99229.03
2023-03-01T12:44:57.746Z,99210.84
2023-03-01T13:17:32.099Z,99236.22
2023-03-01T13:20:00.563Z,99243.81
2023-03-01T13:22:35.498Z,99228.25
2023-03-01T13:25:42.052Z,99234.56
2023-03-01T13:28:38.832Z,99222.34
2023-03-01T13:31:31.319Z,99224.03
2023-03-01T13:34:00.974Z,99235.59
2023-03-01T13:36:29.213Z,99226.63
2023-03-01T13:38:58.537Z,99225.44
2023-03-01T13:41:44.430Z,99216.19
2023-03-01T13:44:29.674Z,99226.94
2023-03-01T13:47:05.082Z,99226.69
2023-03-01T13:49:51.269Z,99227.69
2023-03-01T13:52:34.330Z,99219.91
2023-03-01T13:55:05.040Z,99218.19
2023-03-01T13:57:37.730Z,99217.91
2023-03-01T14:00:06.629Z,99225.84
2023-03-01T14:02:35.449Z,99220.03
2023-03-01T14:05:02.971Z,99197.25
2023-03-01T14:07:31.033Z,99217.34
2023-03-01T14:10:07.275Z,99211.06
2023-03-01T14:12:50.271Z,99211.47
2023-03-01T14:15:28.521Z,99210.31
2023-03-01T14:18:18.858Z,99212.59
2023-03-01T14:20:52.352Z,99217.47
2023-03-01T14:23:23.904Z,99203.44
2023-03-01T14:25:54.975Z,99199.50
2023-03-01T14:28:28.686Z,99205.97
2023-03-01T14:31:00.844Z,99199.59
2023-03-01T14:33:30.208Z,99192.50
2023-03-01T14:36:01.201Z,99197.44
2023-03-01T14:38:35.888Z,99193.25
2023-03-01T14:41:11.488Z,99194.91
2023-03-01T14:43:42.612Z,99201.50
2023-03-01T14:46:39.106Z,99185.34
2023-03-01T14:49:18.503Z,99196.00
2023-03-01T14:52:29.495Z,99189.63
2023-03-01T14:54:58.501Z,99189.09
2023-03-01T14:57:28.085Z,99188.22
2023-03-01T15:00:07.586Z,99186.25
2023-03-01T15:02:36.552Z,99189.44
2023-03-01T15:05:08.662Z,99186.69
2023-03-01T15:07:50.043Z,99177.72
2023-03-01T15:10:44.694Z,99192.28
2023-03-01T15:13:25.166Z,99186.00
2023-03-01T15:16:03.172Z,99193.19
2023-03-01T15:18:31.875Z,99199.97
2023-03-01T15:21:48.584Z,99192.50
2023-03-01T15:24:25.158Z,99187.69
2023-03-01T15:26:59.465Z,99173.56
2023-03-01T15:29:34.507Z,99182.88
2023-03-01T15:32:07.890Z,99171.81
2023-03-01T15:34:38.523Z,99179.38
2023-03-01T15:37:28.500Z,99190.56
2023-03-01T15:39:58.596Z,99187.41
2023-03-01T15:42:26.448Z,99185.66
2023-03-01T15:45:22.544Z,99184.00
2023-03-01T15:47:59.064Z,99172.25
2023-03-01T15:50:29.649Z,99174.66
2023-03-01T15:53:00.668Z,99179.03
2023-03-01T15:55:31.207Z,99165.56
2023-03-01T15:58:07.850Z,99182.25
2023-03-01T16:00:35.612Z,99175.88
2023-03-01T16:03:03.170Z,99182.44
2023-03-01T16:05:36.203Z,99176.72
2023-03-01T16:08:04.172Z,99176.28
2023-03-01T16:10:32.816Z,99179.94
2023-03-01T16:13:01.000Z,99187.41
2023-03-01T16:15:33.346Z,99184.31
2023-03-01T16:18:12.225Z,99189.44
2023-03-01T16:21:38.813Z,99193.09
2023-03-01T16:24:44.029Z,99183.00
2023-03-01T16:27:56.391Z,99177.75
2023-03-01T16:30:57.932Z,99174.53
2023-03-01T16:34:42.677Z,99187.94
2023-03-01T16:41:07.947Z,99177.31
2023-03-01T16:43:42.352Z,99175.75
2023-03-01T16:46:20.978Z,99175.22
2023-03-01T16:48:49.800Z,99180.25
2023-03-01T16:51:51.857Z,99164.47
2023-03-01T16:54:47.999Z,99161.69
2023-03-01T16:57:39.189Z,99160.63
2023-03-01T17:01:06.729Z,99177.75
2023-03-01T17:08:27.152Z,99161.16
2023-03-01T17:11:35.099Z,99150.75
2023-03-01T17:14:06.162Z,99152.19
2023-03-01T17:16:37.316Z,99156.13
2023-03-01T17:19:14.614Z,99131.28
2023-03-01T17:21:53.530Z,99148.00
2023-03-01T17:24:21.197Z,99152.28
2023-03-01T17:26:48.768Z,99149.88
2023-03-01T17:29:18.941Z,99147.34
2023-03-01T17:31:46.673Z,99147.69
2023-03-01T17:34:14.441Z,99142.53
2023-03-01T17:36:44.311Z,99145.16
2023-03-01T17:39:11.924Z,99141.84
2023-03-01T17:41:39.659Z,99136.91
2023-03-01T17:44:07.302Z,99142.97
2023-03-01T17:46:35.186Z,99136.03
2023-03-01T17:49:02.896Z,99135.41
2023-03-01T17:51:32.156Z,99128.03
2023-03-01T17:54:00.224Z,99125.22
2023-03-01T17:56:32.099Z,99123.56
2023-03-01T17:59:00.049Z,99134.44
2023-03-01T18:01:34.067Z,99128.19
2023-03-01T18:04:01.988Z,99122.25
2023-03-01T18:06:30.432Z,99117.75
2023-03-01T18:08:58.347Z,99113.63
2023-03-01T18:11:26.418Z,99109.88
2023-03-01T18:13:55.683Z,99114.69
2023-03-01T18:16:23.427Z,99120.50
2023-03-01T18:18:55.862Z,99114.69
2023-03-01T18:21:23.832Z,99113.94
2023-03-01T18:23:51.437Z,99112.50
2023-03-01T18:26:22.290Z,99117.22
2023-03-01T18:28:51.978Z,99115.22
2023-03-01T18:31:22.825Z,99115.13
2023-03-01T18:33:55.005Z,99121.03
2023-03-01T18:36:31.386Z,99110.31
2023-03-01T18:38:59.370Z,99111.28
2023-03-01T18:41:28.548Z,99114.78
2023-03-01T18:43:57.600Z,99113.03
2023-03-01T18:46:26.141Z,99112.06
2023-03-01T18:48:54.876Z,99107.91
2023-03-01T18:51:28.002Z,99108.09
2023-03-01T18:53:58.933Z,99115.56
2023-03-01T18:56:31.112Z,99109.22
2023-03-01T18:59:00.412Z,99114.50
2023-03-01T19:01:30.279Z,99112.84
2023-03-01T19:03:58.660Z,99109.44
2023-03-01T19:06:31.480Z,99113.63
2023-03-01T19:09:00.012Z,99111.84
2023-03-01T19:11:30.941Z,99099.81
2023-03-01T19:14:00.490Z,99099.03
2023-03-01T19:16:30.705Z,99099.81
2023-03-01T19:19:02.561Z,99102.41
2023-03-01T19:21:32.308Z,99103.28
2023-03-01T19:24:03.028Z,99099.34
2023-03-01T19:26:31.691Z,99097.03
2023-03-01T19:29:00.036Z,99092.97
2023-03-01T19:31:29.998Z,99082.88
2023-03-01T19:34:10.424Z,99078.72
2023-03-01T19:36:42.939Z,99076.75
2023-03-01T19:39:19.799Z,99078.06
2023-03-01T19:41:55.664Z,99074.59
2023-03-01T19:44:26.426Z,99070.94
2023-03-01T19:46:58.023Z,99065.81
2023-03-01T19:49:26.975Z,99069.31
2023-03-01T19:51:54.581Z,99076.44
2023-03-01T19:54:22.914Z,99066.25
2023-03-01T19:56:53.842Z,99074.78
2023-03-01T19:59:24.613Z,99067.31
2023-03-01T20:01:52.659Z,99072.50
2023-03-01T20:04:20.727Z,99063.38
2023-03-01T20:06:49.263Z,99069.50
2023-03-01T20:09:21.873Z,99062.72
2023-03-01T20:11:51.141Z,99071.03
2023-03-01T20:14:22.331Z,99064.34
2023-03-01T20:16:51.546Z,99070.19
2023-03-01T20:19:19.295Z,99072.69
2023-03-01T20:21:46.838Z,99072.78
2023-03-01T20:24:14.512Z,99059.41
2023-03-01T20:26:42.231Z,99063.03
2023-03-01T20:29:09.858Z,99060.81
2023-03-01T20:31:38.631Z,99061.03
2023-03-01T20:34:06.237Z,99043.47
2023-03-01T20:36:35.213Z,99045.47
2023-03-01T20:39:03.101Z,99043.13
2023-03-01T20:41:30.672Z,99038.63
2023-03-01T20:43:59.591Z,99038.97
2023-03-01T20:46:30.333Z,99049.06
2023-03-01T20:48:58.172Z,99036.25
2023-03-01T20:51:26.013Z,99033.50
2023-03-01T20:53:53.874Z,99043.59
2023-03-01T20:56:23.394Z,99036.59
2023-03-01T20:59:09.450Z,99032.97
2023-03-01T21:01:38.709Z,99031.13
2023-03-01T21:04:06.910Z,99030.78
2023-03-01T21:06:34.877Z,99027.50
2023-03-01T21:09:05.426Z,99033.03
2023-03-01T21:11:33.019Z,99027.75
2023-03-01T21:14:00.922Z,99029.75
2023-03-01T21:16:28.596Z,99036.22
2023-03-01T21:18:56.359Z,99041.63
2023-03-01T21:21:24.352Z,99042.94
2023-03-01T21:23:52.286Z,99041.84
2023-03-01T21:26:27.669Z,99047.66
2023-03-01T21:29:01.537Z,99048.78
2023-03-01T21:31:34.135Z,99044.25
2023-03-01T21:34:04.803Z,99036.94
2023-03-01T21:36:33.394Z,99054.34
2023-03-01T21:39:02.202Z,99044.06
2023-03-01T21:41:32.519Z,99039.91
2023-03-01T21:44:03.148Z,99038.91
2023-03-01T21:46:34.069Z,99040.44
2023-03-01T21:49:05.739Z,99040.78
2023-03-01T21:51:34.161Z,99046.88
2023-03-01T21:54:01.891Z,99044.59
2023-03-01T21:56:32.128Z,99039.47
2023-03-01T21:59:01.026Z,99044.50
2023-03-01T22:01:31.552Z,99046.00
2023-03-01T22:04:03.278Z,99034.75
2023-03-01T22:06:40.466Z,99034.28
2023-03-01T22:09:12.462Z,99036.94
2023-03-01T22:11:43.343Z,99046.25
2023-03-01T22:14:13.574Z,99042.09
2023-03-01T22:16:44.605Z,99048.19
2023-03-01T22:19:14.128Z,99045.69
2023-03-01T22:21:43.808Z,99040.63
2023-03-01T22:24:12.611Z,99044.13
2023-03-01T22:26:45.376Z,99034.72
2023-03-01T22:29:30.849Z,99032.78
2023-03-01T22:31:59.228Z,99034.19
2023-03-01T22:34:27.971Z,99041.75
2023-03-01T22:36:56.587Z,99041.97
2023-03-01T22:39:25.320Z,99047.03
2023-03-01T22:41:54.908Z,99052.38
2023-03-01T22:44:23.635Z,99051.50
2023-03-01T22:46:54.419Z,99055.56
2023-03-01T22:49:23.511Z,99062.66
2023-03-01T22:51:51.644Z,99062.31
2023-03-01T22:54:20.547Z,99050.81
2023-03-01T22:56:49.638Z,99055.28
2023-03-01T22:59:25.049Z,99048.84
2023-03-01T23:01:54.185Z,99061.69
2023-03-01T23:04:24.553Z,99056.53
2023-03-01T23:06:54.289Z,99062.13
2023-03-01T23:09:33.375Z,99061.75
2023-03-01T23:12:02.896Z,99060.78
2023-03-01T23:14:31.959Z,99060.00
2023-03-01T23:17:01.733Z,99062.41
2023-03-01T23:19:30.414Z,99083.56
2023-03-01T23:21:58.206Z,99085.44
2023-03-01T23:24:31.627Z,99092.34
2023-03-01T23:27:21.307Z,99066.88
2023-03-01T23:29:51.942Z,99072.84
2023-03-01T23:32:19.423Z,99070.22
2023-03-01T23:34:46.939Z,99055.28
2023-03-01T23:37:14.358Z,99065.28
2023-03-01T23:39:41.929Z,99085.88
2023-03-01T23:42:09.357Z,99080.25
2023-03-01T23:44:38.996Z,99074.53
2023-03-01T23:47:06.891Z,99061.84
2023-03-01T23:49:34.412Z,99061.06
2023-03-01T23:52:02.014Z,99065.22
2023-03-01T23:54:29.447Z,99071.03
2023-03-01T23:56:56.985Z,99077.19
2023-03-01T23:59:24.689Z,99063.81
